KSWF

Stewart International Airport

New York, New York, USA
KSWF 252343Z 2600/2706 VRB03KT 2SM -DZ BR OVC005 FM260800 VRB04KT 4SM BR SCT005 OVC040 FM261000 28008KT P6SM SCT250 FM261300 29014G22KT P6SM FEW250 FM262200 30011KT P6SM SKC FM270100 VRB04KT P6SM SKC AMD NOT SKED
Issued Valid From Valid To
Apr-25 @ 23:43 UTC
(4 hours ago)
Apr-26 @ 00:00 UTC
(4 hours ago)
Apr-27 @ 06:00 UTC
(-1 days ago)
Apr-26 @ 00:00 to Apr-26 @ 08:00
KSWF 252343Z 2600/2706 VRB03KT 2SM -DZ BR OVC005
Wind Visibility Clouds Conditions
Variable at 3 knots 2 miles
  • Overcast at 500' AGL
  • Light Drizzle
  • Mist
From Apr-26 @ 08:00 to Apr-26 @ 10:00
FM260800 VRB04KT 4SM BR SCT005 OVC040
Wind Visibility Clouds Conditions
Variable at 4 knots 4 miles
  • Scattered at 500' AGL
  • Overcast at 4,000' AGL
  • Mist
From Apr-26 @ 10:00 to Apr-26 @ 13:00
FM261000 28008KT P6SM SCT250
Wind Visibility Clouds
280° at 8 knots Greater than 6 miles
  • Scattered at 25,000' AGL
From Apr-26 @ 13:00 to Apr-26 @ 22:00
FM261300 29014G22KT P6SM FEW250
Wind Visibility Clouds
290° at 14 knots
 Gusting to 22 knots
Greater than 6 miles
  • Few at 25,000' AGL
From Apr-26 @ 22:00 to Apr-27 @ 01:00
FM262200 30011KT P6SM SKC
Wind Visibility Clouds
300° at 11 knots Greater than 6 miles
  • Clear skies
From Apr-27 @ 01:00 to Apr-27 @ 06:00
FM270100 VRB04KT P6SM SKC AMD NOT SKED
Wind Visibility Clouds
Variable at 4 knots Greater than 6 miles
  • Clear skies
KSWF 252343Z 2600/2706 VRB03KT 2SM -DZ BR OVC005 FM260800 VRB04KT 4SM BR SCT005 OVC040 FM261000 28008KT P6SM SCT250 FM261300 29014G22KT P6SM FEW250 FM262200 30011KT P6SM SKC FM270100 VRB04KT P6SM SKC AMD NOT SKED
Issued Apr-25 @ 23:43 UTC
(4 hours ago)
Valid From Apr-26 @ 00:00 UTC
(4 hours ago)
Valid To Apr-27 @ 06:00 UTC
(-1 days ago)
Apr-26 @ 00:00 - Apr-26 @ 08:00
Wind Visibility
Variable at 3 knots 2 miles
Clouds
  • Overcast at 500' AGL
Conditions
  • Light Drizzle
  • Mist
From Apr-26 @ 08:00 - Apr-26 @ 10:00
Wind Visibility
Variable at 4 knots 4 miles
Clouds
  • Scattered at 500' AGL
  • Overcast at 4,000' AGL
Conditions
  • Mist
From Apr-26 @ 10:00 - Apr-26 @ 13:00
Wind Visibility
280° at 8 knots Greater than 6 miles
Clouds
  • Scattered at 25,000' AGL
From Apr-26 @ 13:00 - Apr-26 @ 22:00
Wind Visibility
290° at 14 knots
 Gusting to 22 knots
Greater than 6 miles
Clouds
  • Few at 25,000' AGL
From Apr-26 @ 22:00 - Apr-27 @ 01:00
Wind Visibility
300° at 11 knots Greater than 6 miles
Clouds
  • Clear skies
From Apr-27 @ 01:00 - Apr-27 @ 06:00
Wind Visibility
Variable at 4 knots Greater than 6 miles
Clouds
  • Clear skies